N434TG KTCL-KATL
Flight info
| Callsign | N434TG |
|---|---|
| Flight time | 0h 38m |
| Altitude | 29000 |
| Route | DRSDN HOBTT2 |
| Aircraft | C25C/M-SDE2E3FGHRWXY/LB1 |
Departure
| Time | 2026-05-07 03:04 |
|---|---|
| Airport | Tuscaloosa National Airport (KTCL) |
Arrival
| Time | 2026-05-07 03:42 |
|---|---|
| Airport | Hartsfield Jackson Atlanta International Airport (KATL) |
| Time | Latitude | Longitude | Altitude | Speed | Heading |
|---|---|---|---|---|---|
| 2026-05-07 02:52 | 33.22278 | -87.60997 | 162 ft | 0 kts | 319° |
| 2026-05-07 02:56 | 33.22276 | -87.60994 | 162 ft | 2 kts | 319° |
| 2026-05-07 02:57 | 33.22268 | -87.60980 | 162 ft | 2 kts | 251° |
| 2026-05-07 02:57 | 33.22269 | -87.60976 | 162 ft | 0 kts | 227° |
| 2026-05-07 02:58 | 33.22225 | -87.61015 | 162 ft | 9 kts | 190° |
| 2026-05-07 02:58 | 33.22148 | -87.61012 | 163 ft | 10 kts | 138° |
| 2026-05-07 02:58 | 33.22067 | -87.61000 | 163 ft | 20 kts | 229° |
| 2026-05-07 02:59 | 33.21934 | -87.61140 | 162 ft | 26 kts | 220° |
| 2026-05-07 02:59 | 33.21804 | -87.61273 | 161 ft | 24 kts | 219° |
| 2026-05-07 02:59 | 33.21681 | -87.61402 | 159 ft | 23 kts | 223° |
| 2026-05-07 02:59 | 33.21563 | -87.61529 | 158 ft | 23 kts | 222° |
| 2026-05-07 03:00 | 33.21448 | -87.61648 | 157 ft | 22 kts | 218° |
| 2026-05-07 03:00 | 33.21333 | -87.61763 | 156 ft | 21 kts | 220° |
| 2026-05-07 03:00 | 33.21225 | -87.61878 | 155 ft | 20 kts | 220° |
| 2026-05-07 03:00 | 33.21125 | -87.61978 | 155 ft | 12 kts | 210° |
| 2026-05-07 03:01 | 33.21094 | -87.61988 | 154 ft | 2 kts | 174° |
| 2026-05-07 03:01 | 33.21045 | -87.61927 | 155 ft | 11 kts | 121° |
| 2026-05-07 03:01 | 33.21049 | -87.61884 | 155 ft | 5 kts | 39° |
| 2026-05-07 03:01 | 33.21051 | -87.61882 | 155 ft | 0 kts | 39° |
| 2026-05-07 03:03 | 33.21078 | -87.61853 | 155 ft | 21 kts | 41° |
| 2026-05-07 03:03 | 33.21445 | -87.61478 | 156 ft | 121 kts | 40° |
| 2026-05-07 03:04 | 33.22268 | -87.60630 | 498 ft | 183 kts | 41° |
| 2026-05-07 03:04 | 33.23374 | -87.59511 | 984 ft | 240 kts | 40° |
| 2026-05-07 03:04 | 33.24706 | -87.58056 | 1556 ft | 267 kts | 46° |
| 2026-05-07 03:04 | 33.25663 | -87.56210 | 2542 ft | 267 kts | 70° |
| 2026-05-07 03:05 | 33.25951 | -87.53956 | 3355 ft | 283 kts | 97° |
| 2026-05-07 03:05 | 33.25491 | -87.51587 | 3896 ft | 291 kts | 114° |
| 2026-05-07 03:05 | 33.24672 | -87.49534 | 4460 ft | 259 kts | 126° |
| 2026-05-07 03:05 | 33.23572 | -87.47992 | 5046 ft | 236 kts | 141° |
| 2026-05-07 03:06 | 33.22373 | -87.46448 | 5639 ft | 276 kts | 131° |
| 2026-05-07 03:06 | 33.21269 | -87.44426 | 6267 ft | 299 kts | 127° |
| 2026-05-07 03:06 | 33.20206 | -87.42394 | 6850 ft | 280 kts | 126° |
| 2026-05-07 03:06 | 33.19272 | -87.40379 | 7441 ft | 278 kts | 120° |
| 2026-05-07 03:07 | 33.18614 | -87.38163 | 8041 ft | 293 kts | 106° |
| 2026-05-07 03:07 | 33.18352 | -87.35661 | 8656 ft | 315 kts | 96° |
| 2026-05-07 03:07 | 33.18206 | -87.32972 | 9292 ft | 331 kts | 95° |
| 2026-05-07 03:07 | 33.18004 | -87.30266 | 9917 ft | 323 kts | 100° |
| 2026-05-07 03:08 | 33.17700 | -87.27631 | 10493 ft | 323 kts | 101° |
| 2026-05-07 03:08 | 33.17423 | -87.24923 | 11089 ft | 334 kts | 99° |
| 2026-05-07 03:08 | 33.17148 | -87.22133 | 11692 ft | 343 kts | 99° |
| 2026-05-07 03:08 | 33.16880 | -87.19268 | 12311 ft | 350 kts | 99° |
| 2026-05-07 03:09 | 33.16584 | -87.16357 | 12972 ft | 356 kts | 99° |
| 2026-05-07 03:09 | 33.16293 | -87.13393 | 13620 ft | 362 kts | 99° |
| 2026-05-07 03:09 | 33.15990 | -87.10393 | 14210 ft | 367 kts | 99° |
| 2026-05-07 03:09 | 33.15692 | -87.07350 | 14789 ft | 371 kts | 99° |
| 2026-05-07 03:10 | 33.15383 | -87.04273 | 15382 ft | 374 kts | 99° |
| 2026-05-07 03:10 | 33.15076 | -87.01219 | 15975 ft | 377 kts | 99° |
| 2026-05-07 03:10 | 33.14759 | -86.98092 | 16575 ft | 380 kts | 99° |
| 2026-05-07 03:10 | 33.14449 | -86.94956 | 17198 ft | 382 kts | 99° |
| 2026-05-07 03:11 | 33.14127 | -86.91798 | 17836 ft | 384 kts | 99° |
| 2026-05-07 03:11 | 33.13802 | -86.88575 | 18031 ft | 400 kts | 99° |
| 2026-05-07 03:11 | 33.13452 | -86.85201 | 18040 ft | 419 kts | 99° |
| 2026-05-07 03:11 | 33.13103 | -86.81685 | 18048 ft | 433 kts | 98° |
| 2026-05-07 03:12 | 33.12729 | -86.78068 | 18050 ft | 445 kts | 99° |
| 2026-05-07 03:12 | 33.12352 | -86.74350 | 18051 ft | 457 kts | 98° |
| 2026-05-07 03:12 | 33.11960 | -86.70555 | 18126 ft | 463 kts | 98° |
| 2026-05-07 03:12 | 33.11572 | -86.66758 | 18554 ft | 460 kts | 98° |
| 2026-05-07 03:13 | 33.11181 | -86.62982 | 18935 ft | 457 kts | 98° |
| 2026-05-07 03:13 | 33.10794 | -86.59238 | 19345 ft | 454 kts | 98° |
| 2026-05-07 03:13 | 33.10400 | -86.55494 | 19767 ft | 456 kts | 98° |
| 2026-05-07 03:13 | 33.10011 | -86.51725 | 20198 ft | 458 kts | 98° |
| 2026-05-07 03:14 | 33.09613 | -86.47939 | 20637 ft | 460 kts | 99° |
| 2026-05-07 03:14 | 33.09219 | -86.44151 | 21102 ft | 461 kts | 99° |
| 2026-05-07 03:14 | 33.08427 | -86.36631 | 22395 ft | 454 kts | 99° |
| 2026-05-07 03:15 | 33.08029 | -86.32899 | 23062 ft | 451 kts | 99° |
| 2026-05-07 03:15 | 33.07639 | -86.29194 | 23701 ft | 450 kts | 99° |
| 2026-05-07 03:15 | 33.07243 | -86.25505 | 24264 ft | 447 kts | 99° |
| 2026-05-07 03:15 | 33.06860 | -86.21882 | 24792 ft | 445 kts | 99° |
| 2026-05-07 03:16 | 33.06465 | -86.18235 | 25391 ft | 443 kts | 99° |
| 2026-05-07 03:16 | 33.06080 | -86.14604 | 25989 ft | 440 kts | 99° |
| 2026-05-07 03:16 | 33.05689 | -86.10992 | 26602 ft | 438 kts | 99° |
| 2026-05-07 03:16 | 33.05304 | -86.07407 | 27224 ft | 432 kts | 99° |
| 2026-05-07 03:17 | 33.04946 | -86.03866 | 27859 ft | 430 kts | 95° |
| 2026-05-07 03:17 | 33.05206 | -86.00329 | 28503 ft | 429 kts | 78° |
| 2026-05-07 03:17 | 33.05986 | -85.96893 | 28925 ft | 433 kts | 70° |
| 2026-05-07 03:17 | 33.07019 | -85.93462 | 28954 ft | 447 kts | 68° |
| 2026-05-07 03:18 | 33.08176 | -85.89969 | 28960 ft | 459 kts | 66° |
| 2026-05-07 03:18 | 33.09395 | -85.86398 | 28974 ft | 471 kts | 66° |
| 2026-05-07 03:18 | 33.10669 | -85.82745 | 28968 ft | 482 kts | 65° |
| 2026-05-07 03:19 | 33.13279 | -85.75236 | 28971 ft | 498 kts | 66° |
| 2026-05-07 03:19 | 33.14581 | -85.71362 | 28703 ft | 510 kts | 66° |
| 2026-05-07 03:19 | 33.15941 | -85.67368 | 28032 ft | 529 kts | 66° |
| 2026-05-07 03:19 | 33.17338 | -85.63308 | 27336 ft | 519 kts | 66° |
| 2026-05-07 03:20 | 33.18653 | -85.59449 | 26671 ft | 499 kts | 66° |
| 2026-05-07 03:20 | 33.19935 | -85.55670 | 26028 ft | 485 kts | 66° |
| 2026-05-07 03:20 | 33.21197 | -85.51955 | 25394 ft | 481 kts | 66° |
| 2026-05-07 03:20 | 33.22450 | -85.48282 | 24766 ft | 474 kts | 66° |
| 2026-05-07 03:21 | 33.23677 | -85.44655 | 24140 ft | 468 kts | 66° |
| 2026-05-07 03:21 | 33.24894 | -85.41071 | 23536 ft | 462 kts | 65° |
| 2026-05-07 03:21 | 33.26088 | -85.37533 | 22869 ft | 456 kts | 65° |
| 2026-05-07 03:21 | 33.27264 | -85.34066 | 22278 ft | 445 kts | 65° |
| 2026-05-07 03:22 | 33.28407 | -85.30669 | 21694 ft | 436 kts | 65° |
| 2026-05-07 03:22 | 33.29531 | -85.27348 | 21132 ft | 427 kts | 65° |
| 2026-05-07 03:22 | 33.30619 | -85.24112 | 20582 ft | 412 kts | 65° |
| 2026-05-07 03:22 | 33.31671 | -85.20990 | 20055 ft | 399 kts | 65° |
| 2026-05-07 03:23 | 33.32697 | -85.17938 | 19525 ft | 395 kts | 65° |
| 2026-05-07 03:23 | 33.33727 | -85.14891 | 19021 ft | 396 kts | 65° |
| 2026-05-07 03:23 | 33.34752 | -85.11830 | 18495 ft | 397 kts | 65° |
| 2026-05-07 03:23 | 33.35782 | -85.08760 | 17936 ft | 397 kts | 65° |
| 2026-05-07 03:24 | 33.36808 | -85.05700 | 17404 ft | 396 kts | 65° |
| 2026-05-07 03:24 | 33.37826 | -85.02651 | 16882 ft | 393 kts | 65° |
| 2026-05-07 03:24 | 33.38838 | -84.99629 | 16370 ft | 387 kts | 66° |
| 2026-05-07 03:24 | 33.39825 | -84.96670 | 15869 ft | 377 kts | 66° |
| 2026-05-07 03:25 | 33.40791 | -84.93784 | 15378 ft | 369 kts | 66° |
| 2026-05-07 03:25 | 33.41418 | -84.91910 | 15060 ft | 365 kts | 66° |
| 2026-05-07 03:25 | 33.42344 | -84.89105 | 14583 ft | 357 kts | 66° |
| 2026-05-07 03:25 | 33.43539 | -84.85547 | 13980 ft | 338 kts | 66° |
| 2026-05-07 03:26 | 33.44393 | -84.82961 | 13517 ft | 329 kts | 66° |
| 2026-05-07 03:26 | 33.45231 | -84.80450 | 13079 ft | 320 kts | 67° |
| 2026-05-07 03:26 | 33.45770 | -84.78817 | 12799 ft | 318 kts | 67° |
| 2026-05-07 03:26 | 33.46607 | -84.76317 | 12375 ft | 328 kts | 67° |
| 2026-05-07 03:27 | 33.47458 | -84.73729 | 12047 ft | 337 kts | 68° |
| 2026-05-07 03:27 | 33.48320 | -84.71142 | 11983 ft | 328 kts | 68° |
| 2026-05-07 03:27 | 33.49136 | -84.68672 | 11974 ft | 312 kts | 67° |
| 2026-05-07 03:27 | 33.49943 | -84.66241 | 11957 ft | 318 kts | 68° |
| 2026-05-07 03:28 | 33.50750 | -84.63759 | 11966 ft | 317 kts | 67° |
| 2026-05-07 03:28 | 33.51571 | -84.61332 | 11971 ft | 312 kts | 68° |
| 2026-05-07 03:28 | 33.52371 | -84.58906 | 11688 ft | 314 kts | 68° |
| 2026-05-07 03:28 | 33.53166 | -84.56465 | 11056 ft | 313 kts | 69° |
| 2026-05-07 03:29 | 33.53954 | -84.54043 | 10451 ft | 311 kts | 68° |
| 2026-05-07 03:29 | 33.54779 | -84.51661 | 9882 ft | 308 kts | 69° |
| 2026-05-07 03:29 | 33.55547 | -84.49274 | 9244 ft | 306 kts | 69° |
| 2026-05-07 03:29 | 33.56335 | -84.46919 | 8622 ft | 301 kts | 66° |
| 2026-05-07 03:30 | 33.57083 | -84.44588 | 8023 ft | 298 kts | 72° |
| 2026-05-07 03:30 | 33.57795 | -84.42266 | 7389 ft | 297 kts | 69° |
| 2026-05-07 03:30 | 33.58586 | -84.39991 | 6755 ft | 292 kts | 68° |
| 2026-05-07 03:30 | 33.59328 | -84.37749 | 6207 ft | 286 kts | 65° |
| 2026-05-07 03:31 | 33.60070 | -84.35601 | 5630 ft | 280 kts | 79° |
| 2026-05-07 03:31 | 33.60629 | -84.33379 | 5073 ft | 281 kts | 66° |
| 2026-05-07 03:31 | 33.61489 | -84.31297 | 4612 ft | 272 kts | 71° |
| 2026-05-07 03:31 | 33.62229 | -84.29267 | 4281 ft | 264 kts | 54° |
| 2026-05-07 03:32 | 33.63725 | -84.28118 | 3948 ft | 253 kts | 9° |
| 2026-05-07 03:32 | 33.65334 | -84.28296 | 3894 ft | 215 kts | 327° |
| 2026-05-07 03:32 | 33.66194 | -84.29377 | 3895 ft | 152 kts | 275° |
| 2026-05-07 03:32 | 33.65956 | -84.30358 | 3892 ft | 122 kts | 214° |
| 2026-05-07 03:33 | 33.65268 | -84.30862 | 3856 ft | 127 kts | 245° |
| 2026-05-07 03:33 | 33.65570 | -84.31949 | 3852 ft | 154 kts | 303° |
| 2026-05-07 03:33 | 33.66486 | -84.32660 | 3936 ft | 164 kts | 327° |
| 2026-05-07 03:33 | 33.67659 | -84.32888 | 4044 ft | 186 kts | 355° |
| 2026-05-07 03:34 | 33.68940 | -84.32428 | 3872 ft | 211 kts | 52° |
| 2026-05-07 03:34 | 33.69821 | -84.31046 | 3970 ft | 212 kts | 42° |
| 2026-05-07 03:34 | 33.70813 | -84.29727 | 3957 ft | 215 kts | 75° |
| 2026-05-07 03:34 | 33.71092 | -84.28015 | 3974 ft | 207 kts | 85° |
| 2026-05-07 03:35 | 33.71292 | -84.26298 | 3974 ft | 208 kts | 91° |
| 2026-05-07 03:35 | 33.71472 | -84.24546 | 3966 ft | 214 kts | 89° |
| 2026-05-07 03:35 | 33.71661 | -84.22775 | 3963 ft | 215 kts | 89° |
| 2026-05-07 03:35 | 33.71696 | -84.21013 | 3954 ft | 204 kts | 115° |
| 2026-05-07 03:36 | 33.70851 | -84.19860 | 3953 ft | 177 kts | 165° |
| 2026-05-07 03:36 | 33.69698 | -84.19451 | 3967 ft | 170 kts | 172° |
| 2026-05-07 03:36 | 33.68583 | -84.19107 | 3969 ft | 165 kts | 175° |
| 2026-05-07 03:36 | 33.67476 | -84.18923 | 3963 ft | 154 kts | 197° |
| 2026-05-07 03:37 | 33.66645 | -84.19655 | 3965 ft | 149 kts | 224° |
| 2026-05-07 03:37 | 33.65889 | -84.20497 | 3978 ft | 148 kts | 224° |
| 2026-05-07 03:37 | 33.65216 | -84.21422 | 3968 ft | 146 kts | 242° |
| 2026-05-07 03:37 | 33.65051 | -84.22560 | 3892 ft | 134 kts | 256° |
| 2026-05-07 03:38 | 33.64984 | -84.23674 | 3728 ft | 135 kts | 259° |
| 2026-05-07 03:38 | 33.64970 | -84.24806 | 3557 ft | 137 kts | 259° |
| 2026-05-07 03:38 | 33.64949 | -84.25967 | 3388 ft | 140 kts | 259° |
| 2026-05-07 03:38 | 33.64960 | -84.27138 | 3209 ft | 140 kts | 263° |
| 2026-05-07 03:39 | 33.64954 | -84.28282 | 3027 ft | 136 kts | 259° |
| 2026-05-07 03:39 | 33.64959 | -84.29424 | 2858 ft | 137 kts | 258° |
| 2026-05-07 03:39 | 33.64944 | -84.30581 | 2682 ft | 141 kts | 262° |
| 2026-05-07 03:39 | 33.64954 | -84.31772 | 2497 ft | 144 kts | 259° |
| 2026-05-07 03:40 | 33.64960 | -84.32926 | 2318 ft | 127 kts | 259° |
| 2026-05-07 03:40 | 33.64951 | -84.33958 | 2154 ft | 121 kts | 259° |
| 2026-05-07 03:40 | 33.64959 | -84.34967 | 1997 ft | 120 kts | 257° |
| 2026-05-07 03:40 | 33.64960 | -84.35974 | 1840 ft | 122 kts | 262° |
| 2026-05-07 03:41 | 33.64954 | -84.36982 | 1675 ft | 122 kts | 259° |
| 2026-05-07 03:41 | 33.64957 | -84.37982 | 1604 ft | 120 kts | 264° |
| 2026-05-07 03:41 | 33.64969 | -84.39012 | 1521 ft | 129 kts | 262° |
| 2026-05-07 03:41 | 33.64959 | -84.40084 | 1349 ft | 123 kts | 265° |
| 2026-05-07 03:42 | 33.64959 | -84.41030 | 1045 ft | 105 kts | 263° |
| 2026-05-07 03:42 | 33.64947 | -84.41798 | 999 ft | 77 kts | 264° |
| 2026-05-07 03:42 | 33.64959 | -84.42184 | 1000 ft | 15 kts | 278° |
| 2026-05-07 03:42 | 33.65027 | -84.42238 | 1000 ft | 9 kts | 359° |
| 2026-05-07 03:43 | 33.65106 | -84.42218 | 1000 ft | 16 kts | 6° |
| 2026-05-07 03:43 | 33.65184 | -84.42248 | 1000 ft | 11 kts | 15° |
| 2026-05-07 03:43 | 33.65222 | -84.42244 | 1000 ft | 8 kts | 358° |
| 2026-05-07 03:43 | 33.65231 | -84.42244 | 1000 ft | 0 kts | 1° |